Meteo Giornale » Osservazioni meteo Sud Africa » Bloemfontein J B M Hertzog
ore: 05:00 - Osservazioni Meteo Bloemfontein J B M Hertzog
Lat. 29° 6' S Lon. 26° 18' E Alt. 1354 metri s.l.m.
8 °C
Sereno
Temp. 24 Ore
6 °C
27 °C
Nord
1.8 Km/h
Dew point 4 °C
Umidità 75 %
Visibilità 10 Km
Il sole sorge alle ore 06:28
Il sole tramonta alle ore 18:00
| Data e Ora | Cielo e Fenomeni | T °C | DP °C | Um. % | Pres. hPa | Vis. km | Vento km/h | |
|---|---|---|---|---|---|---|---|---|
| Oggi h: 05:00 | Sereno | 8 | 4 | 75 | 1025 | 10 | N 1.8 | |
| Oggi h: 04:00 | Sereno | 8 | 5 | 81 | 1025 | 10 | N 0 | |
| Oggi h: 03:00 | Sereno | 10 | 5 | 71 | 1025 | 10 | N 0 | |
| Oggi h: 02:00 | Sereno | 10 | 5 | 71 | 1025 | 10 | N 1.8 | |
| Oggi h: 01:00 | Sereno | 12 | 5 | 62 | 1025 | 10 | N 3.7 | |
| Oggi h: 00:00 | Sereno | 12 | 6 | 66 | 1025 | 10 | N 3.7 | |
| Ieri h: 23:00 | Sereno | 13 | 7 | 66 | 1026 | 10 | N 0 | |
| Ieri h: 22:00 | Sereno | 12 | 5 | 62 | 1026 | 10 | N 0 | |
| Ieri h: 21:00 | Sereno | 13 | 5 | 58 | 1026 | 10 | N 3.7 | |
| Ieri h: 20:00 | Sereno | 15 | 4 | 47 | 1025 | 10 | N 5.5 | |
| Ieri h: 19:00 | Sereno | 18 | 4 | 39 | 1025 | 10 | N 0 | |
| Ieri h: 18:00 | Sereno | 23 | 2 | 25 | 1024 | 10 | N 5.5 | |
| Ieri h: 17:00 | Sereno | 26 | 2 | 20 | 1024 | 10 | N/NO 9.3 | |
| Ieri h: 16:00 | Sereno | 27 | 2 | 19 | 1024 | 10 | N/NO 16.7 | |
| Ieri h: 15:00 | Poco Nuvoloso | 27 | 3 | 21 | 1025 | 10 | N 20.3 | |
| Ieri h: 14:00 | Poco Nuvoloso | 27 | 4 | 22 | 1025 | 10 | NO 24 | |
| Ieri h: 13:00 | Sereno | 26 | 4 | 24 | 1026 | 10 | N/NO 16.7 | |
| Ieri h: 12:00 | Sereno | 26 | 4 | 24 | 1027 | 10 | N 13 | |
| Ieri h: 11:00 | Sereno | 23 | 6 | 33 | 1028 | 10 | N 13 | |
| Ieri h: 10:00 | Sereno | 20 | 7 | 42 | 1029 | 10 | NE 7.4 | |
| Ieri h: 09:00 | Sereno | 15 | 7 | 58 | 1029 | 10 | N 1.8 | |
| Ieri h: 08:00 | Sereno | 10 | 8 | 87 | 1028 | 10 | N 0 | |
| Ieri h: 07:00 | Sereno | 6 | 5 | 93 | 1028 | 10 | N 5.5 | |
| Ieri h: 06:00 | Sereno | 6 | 5 | 93 | 1027 | 10 | N 3.7 | |



